createdAt,value
2023-05-11T00:00:24.691Z,15.49
2023-05-11T00:02:51.654Z,15.83
2023-05-11T00:05:18.581Z,15.99
2023-05-11T00:07:45.558Z,16.02
2023-05-11T00:10:12.410Z,16.23
2023-05-11T00:12:39.301Z,16.41
2023-05-11T00:15:06.795Z,16.70
2023-05-11T00:17:33.761Z,14.92
2023-05-11T00:20:00.908Z,14.56
2023-05-11T00:22:27.760Z,15.85
2023-05-11T00:24:54.665Z,14.79
2023-05-11T00:27:21.483Z,13.73
2023-05-11T00:29:48.283Z,13.54
2023-05-11T00:32:15.089Z,12.74
2023-05-11T00:34:41.790Z,12.63
2023-05-11T00:37:08.824Z,13.54
2023-05-11T00:39:40.591Z,12.61
2023-05-11T00:42:07.620Z,13.88
2023-05-11T00:44:34.528Z,14.28
2023-05-11T00:47:01.463Z,14.64
2023-05-11T00:49:29.946Z,15.03
2023-05-11T00:51:57.924Z,14.28
2023-05-11T00:54:25.068Z,15.47
2023-05-11T00:56:51.961Z,15.81
2023-05-11T00:59:19.255Z,15.29
2023-05-11T01:01:46.329Z,14.36
2023-05-11T01:04:13.465Z,14.91
2023-05-11T01:07:06.510Z,14.74
2023-05-11T01:09:47.265Z,13.76
2023-05-11T01:12:16.766Z,14.01
2023-05-11T01:15:13.040Z,13.79
2023-05-11T01:17:50.464Z,14.07
2023-05-11T01:20:27.186Z,12.44
2023-05-11T01:23:21.163Z,13.96
2023-05-11T01:26:09.740Z,14.27
2023-05-11T01:28:54.773Z,13.35
2023-05-11T01:31:21.882Z,14.50
2023-05-11T01:33:55.807Z,14.67
2023-05-11T01:36:29.351Z,14.29
2023-05-11T01:39:00.608Z,14.75
2023-05-11T01:41:28.509Z,14.73
2023-05-11T01:44:00.192Z,14.43
2023-05-11T01:46:27.667Z,14.45
2023-05-11T01:48:56.824Z,14.02
2023-05-11T01:51:25.180Z,14.80
2023-05-11T01:53:53.809Z,15.01
2023-05-11T01:56:22.809Z,14.32
2023-05-11T01:58:50.689Z,14.87
2023-05-11T02:01:18.653Z,13.94
2023-05-11T02:03:46.681Z,14.46
2023-05-11T02:06:14.785Z,14.97
2023-05-11T02:08:41.944Z,14.37
2023-05-11T02:11:10.633Z,15.21
2023-05-11T02:13:39.507Z,15.02
2023-05-11T02:16:07.100Z,14.88
2023-05-11T02:18:35.201Z,14.79
2023-05-11T02:21:02.878Z,14.79
2023-05-11T02:23:31.633Z,15.72
2023-05-11T02:25:58.741Z,14.85
2023-05-11T02:28:25.928Z,14.98
2023-05-11T02:30:55.985Z,14.67
2023-05-11T02:33:28.983Z,15.66
2023-05-11T02:35:56.673Z,14.89
2023-05-11T02:38:28.969Z,14.59
2023-05-11T02:40:59.140Z,12.87
2023-05-11T02:43:31.613Z,11.92
2023-05-11T02:46:02.644Z,12.54
2023-05-11T02:48:32.683Z,12.87
2023-05-11T02:51:01.642Z,13.60
2023-05-11T02:53:29.395Z,13.00
2023-05-11T02:55:57.560Z,13.38
2023-05-11T02:58:24.648Z,13.60
2023-05-11T03:00:52.000Z,13.29
2023-05-11T03:03:19.202Z,13.49
2023-05-11T03:05:46.189Z,13.23
2023-05-11T03:08:13.013Z,13.10
2023-05-11T03:10:40.652Z,13.39
2023-05-11T03:13:08.081Z,13.23
2023-05-11T03:15:35.133Z,13.07
2023-05-11T03:18:02.426Z,13.11
2023-05-11T03:20:29.541Z,13.46
2023-05-11T03:22:56.950Z,13.49
2023-05-11T03:25:24.608Z,13.40
2023-05-11T03:27:51.752Z,13.54
2023-05-11T03:30:20.381Z,14.30
2023-05-11T03:32:47.470Z,14.18
2023-05-11T03:35:14.389Z,14.24
2023-05-11T03:37:41.540Z,13.87
2023-05-11T03:40:09.269Z,14.23
2023-05-11T03:42:36.695Z,14.52
2023-05-11T03:45:04.546Z,13.49
2023-05-11T03:47:32.115Z,13.97
2023-05-11T03:49:59.237Z,14.16
2023-05-11T03:52:26.529Z,14.88
2023-05-11T03:54:53.584Z,15.19
2023-05-11T03:57:20.451Z,15.31
2023-05-11T03:59:47.430Z,14.71
2023-05-11T04:02:14.312Z,14.73
2023-05-11T04:04:41.205Z,15.05
2023-05-11T04:07:08.101Z,15.06
2023-05-11T04:09:35.008Z,15.17
2023-05-11T04:12:01.890Z,14.76
2023-05-11T04:14:28.717Z,14.73
2023-05-11T04:16:55.582Z,14.92
2023-05-11T04:19:24.022Z,14.82
2023-05-11T04:21:50.874Z,14.29
2023-05-11T04:24:17.759Z,14.28
2023-05-11T04:26:44.833Z,14.46
2023-05-11T04:29:11.727Z,14.08
2023-05-11T04:31:38.605Z,14.40
2023-05-11T04:34:08.622Z,13.98
2023-05-11T04:36:35.470Z,13.69
2023-05-11T04:39:02.376Z,14.03
2023-05-11T04:41:29.244Z,14.09
2023-05-11T04:43:56.070Z,13.75
2023-05-11T04:46:23.741Z,13.95
2023-05-11T04:48:50.793Z,14.25
2023-05-11T04:51:17.638Z,15.05
2023-05-11T04:53:44.730Z,14.57
2023-05-11T04:56:12.918Z,14.89
2023-05-11T04:58:39.820Z,14.32
2023-05-11T05:01:06.777Z,14.32
2023-05-11T05:03:33.669Z,15.09
2023-05-11T05:06:00.648Z,14.70
2023-05-11T05:08:27.514Z,15.10
2023-05-11T05:10:54.386Z,15.58
2023-05-11T05:13:21.236Z,15.02
2023-05-11T05:15:48.048Z,15.47
2023-05-11T05:18:14.985Z,16.72
2023-05-11T05:20:41.842Z,16.42
2023-05-11T05:23:09.337Z,16.65
2023-05-11T05:25:36.190Z,16.44
2023-05-11T05:28:03.043Z,16.86
2023-05-11T05:30:29.939Z,17.02
2023-05-11T05:32:56.826Z,17.24
2023-05-11T05:35:23.705Z,16.92
2023-05-11T05:37:50.559Z,17.06
2023-05-11T05:40:17.601Z,16.99
2023-05-11T05:42:45.763Z,16.59
2023-05-11T05:45:13.981Z,15.52
2023-05-11T05:47:42.026Z,15.69
2023-05-11T05:50:09.275Z,16.15
2023-05-11T05:52:36.650Z,16.28
2023-05-11T05:55:03.678Z,16.12
2023-05-11T05:57:30.884Z,15.74
2023-05-11T05:59:57.795Z,15.67
2023-05-11T06:02:24.713Z,16.24
2023-05-11T06:04:51.678Z,16.23
2023-05-11T06:07:18.544Z,16.03
2023-05-11T06:09:45.447Z,16.68
2023-05-11T06:12:12.368Z,16.40
2023-05-11T06:14:39.403Z,16.18
2023-05-11T06:17:06.368Z,15.93
2023-05-11T06:19:33.397Z,15.76
2023-05-11T06:22:00.260Z,16.00
2023-05-11T06:24:27.194Z,16.48
2023-05-11T06:26:54.065Z,16.98
2023-05-11T06:29:22.440Z,17.37
2023-05-11T06:31:56.185Z,16.86
2023-05-11T06:34:23.113Z,16.08
2023-05-11T06:36:49.974Z,17.37
2023-05-11T06:39:16.849Z,17.73
2023-05-11T06:41:44.682Z,17.13
2023-05-11T06:44:13.122Z,16.83
2023-05-11T06:46:40.113Z,16.65
2023-05-11T06:49:08.776Z,16.42
2023-05-11T06:51:35.720Z,17.12
2023-05-11T06:54:02.753Z,16.89
2023-05-11T06:56:29.934Z,16.40
2023-05-11T06:59:01.439Z,16.42
2023-05-11T07:01:28.491Z,17.54
2023-05-11T07:03:55.977Z,17.57
2023-05-11T07:06:22.882Z,17.42
2023-05-11T07:08:52.801Z,17.62
2023-05-11T07:11:19.786Z,17.35
2023-05-11T07:13:47.795Z,17.45
2023-05-11T07:16:15.022Z,17.76
2023-05-11T07:18:42.005Z,17.26
2023-05-11T07:21:08.977Z,16.66
2023-05-11T07:23:35.824Z,16.96
2023-05-11T07:26:04.706Z,16.92
2023-05-11T07:28:44.009Z,17.49
2023-05-11T07:31:10.965Z,16.98
2023-05-11T07:33:39.582Z,17.57
2023-05-11T07:36:07.529Z,17.53
2023-05-11T07:38:36.551Z,17.28
2023-05-11T07:41:05.965Z,17.33
2023-05-11T07:43:33.611Z,17.20
2023-05-11T07:46:00.609Z,17.06
2023-05-11T07:48:28.976Z,17.44
2023-05-11T07:50:55.977Z,17.53
2023-05-11T07:53:22.823Z,17.78
2023-05-11T07:55:49.745Z,17.63
2023-05-11T07:58:16.746Z,17.68
2023-05-11T08:00:43.737Z,17.76
2023-05-11T08:03:10.747Z,17.81
2023-05-11T08:05:38.133Z,18.15
2023-05-11T08:08:05.459Z,17.81
2023-05-11T08:10:32.340Z,17.87
2023-05-11T08:12:59.358Z,18.16
2023-05-11T08:15:26.237Z,18.28
2023-05-11T08:17:54.214Z,17.40
2023-05-11T08:20:21.089Z,16.98
2023-05-11T08:22:48.128Z,17.83
2023-05-11T08:25:15.003Z,17.61
2023-05-11T08:27:41.928Z,18.18
2023-05-11T08:30:11.764Z,18.30
2023-05-11T08:32:54.489Z,18.12
2023-05-11T08:35:25.177Z,17.84
2023-05-11T08:37:52.073Z,18.05
2023-05-11T08:40:21.956Z,17.99
2023-05-11T08:42:49.947Z,18.08
2023-05-11T08:45:18.050Z,18.21
2023-05-11T08:47:46.415Z,18.62
2023-05-11T08:50:13.441Z,18.97
2023-05-11T08:52:40.936Z,18.65
2023-05-11T08:55:09.431Z,18.42
2023-05-11T08:57:36.667Z,18.86
2023-05-11T09:00:04.447Z,18.89
2023-05-11T09:02:32.328Z,18.36
2023-05-11T09:04:59.967Z,18.93
2023-05-11T09:07:27.398Z,18.75
2023-05-11T09:09:55.110Z,18.97
2023-05-11T09:12:26.237Z,18.94
2023-05-11T09:14:53.177Z,18.83
2023-05-11T09:17:20.193Z,19.30
2023-05-11T09:20:07.807Z,19.55
2023-05-11T09:22:42.350Z,18.73
2023-05-11T09:25:12.001Z,19.07
2023-05-11T09:27:43.311Z,18.98
2023-05-11T09:30:12.519Z,18.90
2023-05-11T09:32:54.635Z,19.40
2023-05-11T09:35:29.515Z,19.55
2023-05-11T09:38:07.118Z,19.25
2023-05-11T09:40:36.811Z,20.15
2023-05-11T09:43:16.871Z,19.87
2023-05-11T09:45:45.642Z,20.25
2023-05-11T09:48:22.227Z,19.93
2023-05-11T09:50:50.352Z,20.40
2023-05-11T09:53:17.833Z,19.86
2023-05-11T09:55:55.708Z,19.44
2023-05-11T09:58:22.587Z,19.22
2023-05-11T10:00:53.832Z,19.75
2023-05-11T10:03:21.019Z,19.74
2023-05-11T10:05:59.060Z,19.67
2023-05-11T10:08:35.962Z,19.52
2023-05-11T10:11:03.188Z,19.92
2023-05-11T10:13:33.509Z,19.72
2023-05-11T10:16:04.139Z,19.99
2023-05-11T10:18:32.654Z,19.80
2023-05-11T10:21:00.217Z,20.02
2023-05-11T10:23:27.392Z,19.59
2023-05-11T10:25:54.625Z,19.70
2023-05-11T10:28:22.534Z,19.68
2023-05-11T10:30:49.880Z,19.60
2023-05-11T10:33:17.305Z,19.70
2023-05-11T10:35:46.069Z,19.35
2023-05-11T10:38:13.716Z,19.46
2023-05-11T10:40:46.371Z,19.98
2023-05-11T10:43:52.594Z,19.81
2023-05-11T10:46:32.032Z,19.81
2023-05-11T10:49:12.897Z,20.04
2023-05-11T10:52:04.436Z,19.80
2023-05-11T10:54:50.622Z,19.53
2023-05-11T10:57:51.290Z,19.35
2023-05-11T11:00:47.960Z,20.02
2023-05-11T11:03:15.863Z,20.23
2023-05-11T11:05:44.178Z,20.92
2023-05-11T11:08:13.125Z,20.64
2023-05-11T11:10:46.232Z,19.94
2023-05-11T11:13:14.272Z,19.65
2023-05-11T11:15:56.288Z,19.74
2023-05-11T11:18:35.983Z,20.00
2023-05-11T11:21:04.437Z,19.79
2023-05-11T11:23:40.845Z,20.03
2023-05-11T11:26:10.103Z,19.90
2023-05-11T11:28:55.070Z,19.32
2023-05-11T11:31:27.811Z,19.58
2023-05-11T11:33:59.165Z,19.88
2023-05-11T11:37:03.736Z,20.20
2023-05-11T11:39:42.647Z,19.92
2023-05-11T11:42:14.311Z,19.78
2023-05-11T11:44:42.178Z,20.36
2023-05-11T11:47:18.981Z,20.09
2023-05-11T11:49:48.529Z,20.45
2023-05-11T11:52:35.931Z,21.04
2023-05-11T11:55:05.324Z,20.92
2023-05-11T11:57:35.273Z,21.18
2023-05-11T12:00:07.280Z,21.45
2023-05-11T12:02:35.179Z,21.45
2023-05-11T12:05:13.205Z,21.48
2023-05-11T12:07:45.372Z,21.39
2023-05-11T12:10:17.593Z,21.37
2023-05-11T12:12:51.302Z,21.76
2023-05-11T12:15:28.245Z,21.55
2023-05-11T12:17:55.947Z,20.63
2023-05-11T12:20:23.148Z,20.47
2023-05-11T12:22:50.478Z,21.11
2023-05-11T12:25:18.875Z,21.29
2023-05-11T12:27:52.001Z,21.37
2023-05-11T12:30:32.924Z,21.31
2023-05-11T12:33:00.488Z,21.16
2023-05-11T12:35:28.941Z,21.47
2023-05-11T12:37:57.197Z,20.96
2023-05-11T12:40:24.381Z,20.95
2023-05-11T12:42:52.251Z,20.80
2023-05-11T12:45:20.741Z,20.79
2023-05-11T12:47:49.068Z,19.97
2023-05-11T12:50:16.829Z,19.89
2023-05-11T12:52:44.124Z,20.48
2023-05-11T12:55:11.840Z,19.85
2023-05-11T12:57:40.429Z,19.94
2023-05-11T13:00:14.879Z,19.98
2023-05-11T13:02:51.242Z,19.95
2023-05-11T13:05:19.942Z,19.37
2023-05-11T13:07:48.690Z,19.70
2023-05-11T13:10:15.845Z,19.60
2023-05-11T13:12:50.467Z,19.61
2023-05-11T13:15:17.927Z,19.93
2023-05-11T13:17:45.264Z,19.37
2023-05-11T13:20:27.291Z,20.18
2023-05-11T13:23:07.240Z,20.07
2023-05-11T13:25:36.039Z,19.77
2023-05-11T13:28:03.085Z,20.00
2023-05-11T13:30:30.844Z,20.32
2023-05-11T13:32:58.657Z,19.93
2023-05-11T13:35:25.744Z,20.12
2023-05-11T13:37:52.636Z,19.75
2023-05-11T13:40:19.527Z,19.74
2023-05-11T13:42:46.534Z,20.20
2023-05-11T13:45:13.405Z,20.27
2023-05-11T13:47:45.391Z,19.83
2023-05-11T13:50:12.571Z,19.47
2023-05-11T13:52:41.115Z,19.03
2023-05-11T13:55:08.443Z,19.10
2023-05-11T13:57:35.586Z,19.29
2023-05-11T14:00:02.427Z,19.49
2023-05-11T14:02:29.431Z,19.61
2023-05-11T14:04:56.426Z,19.59
2023-05-11T14:07:29.760Z,19.74
2023-05-11T14:10:03.184Z,19.61
2023-05-11T14:12:30.049Z,19.47
2023-05-11T14:14:56.923Z,19.20
2023-05-11T14:17:23.786Z,19.35
2023-05-11T14:19:50.686Z,19.33
2023-05-11T14:22:17.532Z,19.37
2023-05-11T14:24:44.358Z,18.97
2023-05-11T14:27:11.225Z,19.12
2023-05-11T14:29:41.134Z,18.83
2023-05-11T14:32:10.328Z,18.74
2023-05-11T14:34:37.371Z,18.75
2023-05-11T14:37:05.833Z,18.73
2023-05-11T14:39:32.746Z,18.33
2023-05-11T14:41:59.561Z,18.21
2023-05-11T14:44:26.474Z,18.45
2023-05-11T14:46:53.749Z,18.20
2023-05-11T14:49:24.503Z,17.86
2023-05-11T14:51:51.369Z,18.15
2023-05-11T14:54:18.192Z,18.49
2023-05-11T14:56:51.394Z,18.51
2023-05-11T14:59:18.488Z,17.86
2023-05-11T15:01:45.507Z,18.12
2023-05-11T15:04:12.498Z,17.80
2023-05-11T15:06:39.443Z,17.74
2023-05-11T15:09:06.843Z,17.46
2023-05-11T15:11:33.708Z,17.02
2023-05-11T15:14:01.193Z,17.20
2023-05-11T15:16:28.120Z,16.87
2023-05-11T15:19:06.721Z,17.55
2023-05-11T15:21:33.662Z,16.46
2023-05-11T15:24:00.553Z,15.80
2023-05-11T15:26:27.391Z,16.34
2023-05-11T15:28:54.275Z,16.23
2023-05-11T15:31:22.452Z,16.33
2023-05-11T15:33:49.351Z,15.60
2023-05-11T15:36:16.313Z,15.75
2023-05-11T15:38:44.209Z,15.61
2023-05-11T15:41:11.079Z,15.88
2023-05-11T15:43:37.991Z,16.14
2023-05-11T15:46:05.830Z,16.63
2023-05-11T15:48:33.167Z,16.17
2023-05-11T15:51:01.119Z,16.09
2023-05-11T15:53:28.080Z,15.87
2023-05-11T15:55:55.905Z,15.76
2023-05-11T15:58:23.243Z,16.14
2023-05-11T16:00:50.299Z,16.25
2023-05-11T16:03:17.584Z,15.98
2023-05-11T16:05:45.686Z,15.68
2023-05-11T16:08:13.246Z,15.38
2023-05-11T16:10:40.182Z,15.63
2023-05-11T16:13:07.335Z,15.17
2023-05-11T16:15:34.186Z,15.49
2023-05-11T16:18:04.011Z,16.01
2023-05-11T16:20:31.913Z,15.37
2023-05-11T16:22:58.839Z,16.26
2023-05-11T16:25:25.726Z,15.38
2023-05-11T16:27:52.572Z,15.33
2023-05-11T16:30:24.889Z,15.59
2023-05-11T16:32:53.107Z,14.64
2023-05-11T16:35:20.568Z,14.71
2023-05-11T16:37:48.088Z,14.96
2023-05-11T16:40:18.472Z,15.09
2023-05-11T16:42:46.977Z,14.56
2023-05-11T16:45:13.948Z,14.74
2023-05-11T16:53:59.822Z,14.25
2023-05-11T16:56:38.722Z,13.82
2023-05-11T16:59:10.255Z,14.25
2023-05-11T17:01:50.752Z,13.94
2023-05-11T17:04:20.755Z,14.10
2023-05-11T17:06:47.916Z,13.89
2023-05-11T17:09:17.301Z,13.69
2023-05-11T17:11:44.437Z,14.07
2023-05-11T17:14:11.392Z,13.62
2023-05-11T17:16:56.293Z,13.85
2023-05-11T17:19:23.193Z,13.64
2023-05-11T17:21:52.883Z,14.02
2023-05-11T17:24:22.228Z,13.81
2023-05-11T17:26:56.962Z,14.21
2023-05-11T17:29:24.024Z,14.17
2023-05-11T17:31:52.050Z,14.36
2023-05-11T17:34:20.520Z,13.45
2023-05-11T17:37:02.261Z,13.49
2023-05-11T17:39:34.279Z,13.35
2023-05-11T17:42:01.173Z,13.49
2023-05-11T17:44:28.396Z,13.35
2023-05-11T17:46:55.219Z,13.24
2023-05-11T17:49:21.880Z,13.70
2023-05-11T17:51:48.676Z,13.13
2023-05-11T17:54:15.343Z,13.19
2023-05-11T17:56:42.211Z,13.18
2023-05-11T17:59:09.262Z,13.18
2023-05-11T18:01:36.128Z,13.38
2023-05-11T18:04:04.779Z,13.13
2023-05-11T18:06:31.801Z,13.28
2023-05-11T18:08:59.638Z,13.14
2023-05-11T18:11:27.331Z,13.28
2023-05-11T18:13:54.195Z,13.15
2023-05-11T18:16:21.681Z,13.72
2023-05-11T18:18:48.604Z,13.25
2023-05-11T18:21:15.416Z,13.44
2023-05-11T18:23:42.545Z,13.46
2023-05-11T18:26:09.450Z,13.28
2023-05-11T18:28:36.382Z,13.01
2023-05-11T18:31:03.345Z,12.66
2023-05-11T18:33:30.269Z,13.68
2023-05-11T18:35:57.116Z,12.91
2023-05-11T18:38:23.740Z,12.67
2023-05-11T18:40:51.515Z,13.05
2023-05-11T18:43:18.383Z,12.65
2023-05-11T18:45:46.483Z,12.45
2023-05-11T18:48:13.493Z,12.43
2023-05-11T18:50:40.517Z,12.51
2023-05-11T18:53:07.357Z,12.43
2023-05-11T18:55:44.939Z,12.66
2023-05-11T18:58:20.198Z,12.71
2023-05-11T19:00:48.722Z,13.38
2023-05-11T19:03:16.371Z,12.49
2023-05-11T19:05:43.824Z,12.31
2023-05-11T19:08:11.306Z,12.06
2023-05-11T19:10:39.546Z,12.30
2023-05-11T19:13:07.332Z,12.13
2023-05-11T19:15:34.367Z,11.93
2023-05-11T19:18:01.265Z,11.90
2023-05-11T19:20:28.115Z,11.93
2023-05-11T19:22:54.775Z,11.84
2023-05-11T19:25:21.665Z,11.97
2023-05-11T19:27:48.580Z,11.93
2023-05-11T19:30:15.485Z,11.82
2023-05-11T19:32:43.776Z,12.05
2023-05-11T19:35:12.857Z,12.17
2023-05-11T19:37:39.760Z,12.34
2023-05-11T19:40:43.044Z,11.92
2023-05-11T19:42:54.100Z,12.33
2023-05-11T19:45:21.072Z,12.20
2023-05-11T19:47:47.986Z,11.99
2023-05-11T19:50:15.175Z,11.92
2023-05-11T19:52:42.056Z,12.13
2023-05-11T19:55:09.091Z,12.04
2023-05-11T19:57:37.422Z,11.99
2023-05-11T20:00:07.891Z,11.99
2023-05-11T20:02:35.970Z,11.75
2023-05-11T20:05:04.262Z,11.92
2023-05-11T20:07:32.111Z,11.44
2023-05-11T20:09:59.036Z,11.58
2023-05-11T20:12:25.886Z,11.46
2023-05-11T20:14:53.120Z,11.73
2023-05-11T20:17:20.132Z,11.75
2023-05-11T20:19:47.033Z,11.60
2023-05-11T20:22:13.865Z,11.34
2023-05-11T20:24:40.723Z,11.43
2023-05-11T20:27:11.172Z,11.67
2023-05-11T20:29:40.409Z,11.57
2023-05-11T20:32:07.763Z,11.55
2023-05-11T20:34:34.774Z,11.68
2023-05-11T20:37:01.671Z,11.80
2023-05-11T20:39:28.598Z,12.09
2023-05-11T20:41:58.729Z,12.15
2023-05-11T20:44:25.979Z,11.87
2023-05-11T20:46:52.874Z,12.00
2023-05-11T20:49:34.691Z,12.00
2023-05-11T20:52:04.977Z,11.74
2023-05-11T20:54:33.911Z,11.98
2023-05-11T20:57:01.757Z,12.00
2023-05-11T21:01:59.860Z,11.60
2023-05-11T21:04:26.677Z,11.77
2023-05-11T21:06:56.310Z,11.89
2023-05-11T21:09:23.178Z,11.63
2023-05-11T21:11:50.075Z,11.58
2023-05-11T21:14:16.997Z,11.57
2023-05-11T21:16:43.882Z,11.72
2023-05-11T21:19:10.885Z,11.94
2023-05-11T21:21:38.247Z,11.65
2023-05-11T21:24:06.274Z,11.78
2023-05-11T21:26:33.244Z,12.15
2023-05-11T21:29:00.414Z,12.18
2023-05-11T21:31:27.436Z,12.28
2023-05-11T21:33:54.657Z,12.36
2023-05-11T21:36:22.371Z,12.29
2023-05-11T21:38:49.342Z,12.25
2023-05-11T21:41:17.043Z,11.67
2023-05-11T21:43:43.906Z,11.51
2023-05-11T21:46:10.870Z,11.56
2023-05-11T21:48:37.719Z,11.67
2023-05-11T21:51:04.460Z,11.62
2023-05-11T21:53:31.368Z,11.45
2023-05-11T21:55:58.295Z,11.26
2023-05-11T21:58:25.188Z,11.52
2023-05-11T22:00:52.123Z,11.45
2023-05-11T22:03:19.467Z,11.53
2023-05-11T22:05:46.458Z,11.58
2023-05-11T22:08:15.475Z,11.25
2023-05-11T22:10:43.471Z,11.33
2023-05-11T22:13:10.520Z,11.18
2023-05-11T22:15:37.356Z,11.45
2023-05-11T22:18:04.106Z,11.38
2023-05-11T22:20:31.866Z,11.58
2023-05-11T22:22:59.467Z,11.85
2023-05-11T22:25:26.718Z,11.36
2023-05-11T22:27:53.876Z,11.17
2023-05-11T22:30:21.195Z,11.58
2023-05-11T22:32:48.337Z,11.28
2023-05-11T22:35:15.173Z,11.04
2023-05-11T22:37:42.066Z,10.90
2023-05-11T22:40:09.057Z,11.13
2023-05-11T22:42:35.996Z,11.12
2023-05-11T22:45:02.980Z,10.94
2023-05-11T22:47:30.304Z,10.79
2023-05-11T22:49:57.298Z,10.70
2023-05-11T22:52:24.175Z,11.29
2023-05-11T22:55:00.450Z,10.91
2023-05-11T22:57:27.882Z,11.27
2023-05-11T22:59:54.795Z,11.23
2023-05-11T23:02:23.200Z,11.19
2023-05-11T23:04:53.575Z,11.05
2023-05-11T23:07:20.398Z,10.98
2023-05-11T23:09:47.199Z,10.82
2023-05-11T23:12:14.126Z,10.95
2023-05-11T23:14:41.961Z,11.06
2023-05-11T23:17:09.251Z,11.13
2023-05-11T23:19:36.452Z,11.37
2023-05-11T23:22:03.472Z,11.29
2023-05-11T23:24:30.340Z,11.20
2023-05-11T23:26:57.269Z,11.36
2023-05-11T23:29:24.544Z,11.18
2023-05-11T23:31:51.658Z,11.38
2023-05-11T23:34:18.736Z,10.90
2023-05-11T23:36:45.804Z,10.92
2023-05-11T23:39:12.701Z,11.09
2023-05-11T23:41:39.571Z,11.20
2023-05-11T23:44:06.412Z,10.84
2023-05-11T23:46:33.053Z,10.73
2023-05-11T23:48:59.898Z,10.89
2023-05-11T23:51:26.516Z,10.81
2023-05-11T23:53:53.399Z,11.04
2023-05-11T23:56:20.241Z,11.12
2023-05-11T23:58:46.993Z,11.11
